Time;durP1;ratioP1;P1;durP2;ratioP2;P2;SDS_P1;SDS_P2;PMS_P1;PMS_P2;Temp;Humidity;BMP_temperature;BMP_pressure;BME280_temperature;BME280_humidity;BME280_pressure;Samples;Min_cycle;Max_cycle;Signal;HPM_P1;HPM_P2
2022/05/22 00:00:44;;;;;;;0.33;0.10;;;;;;;13.22;100.00;98423.23;1716994;81;21571;-49
2022/05/22 00:03:11;;;;;;;2.33;0.10;;;;;;;13.19;100.00;98419.41;1719484;81;21077;-49
2022/05/22 00:05:37;;;;;;;0.20;0.10;;;;;;;13.18;100.00;98428.53;1719138;82;21071;-47
2022/05/22 00:08:05;;;;;;;2.40;0.00;;;;;;;13.15;100.00;98423.36;1720504;82;22256;-46
2022/05/22 00:10:32;;;;;;;1.17;0.00;;;;;;;13.12;100.00;98435.22;1718650;81;22417;-47
2022/05/22 00:12:59;;;;;;;1.98;0.00;;;;;;;13.09;100.00;98424.69;1720438;81;21545;-47
2022/05/22 00:15:26;;;;;;;0.37;0.10;;;;;;;13.05;100.00;98420.48;1718872;81;21062;-47
2022/05/22 00:17:52;;;;;;;2.05;0.53;;;;;;;13.04;100.00;98426.01;1717877;82;21093;-48
2022/05/22 00:20:20;;;;;;;0.88;0.10;;;;;;;13.01;100.00;98420.38;1715404;82;21153;-47
2022/05/22 00:22:47;;;;;;;0.40;0.00;;;;;;;12.99;100.00;98420.12;1717934;82;21034;-47
2022/05/22 00:25:14;;;;;;;0.80;0.10;;;;;;;12.97;100.00;98428.34;1722836;81;21021;-48
2022/05/22 00:27:41;;;;;;;0.60;0.00;;;;;;;12.95;100.00;98424.03;1727237;82;21058;-48
2022/05/22 00:30:09;;;;;;;0.78;0.10;;;;;;;12.93;100.00;98424.14;1726360;82;21069;-47
2022/05/22 00:32:38;;;;;;;1.45;0.10;;;;;;;12.89;100.00;98418.63;1725860;82;21090;-49
2022/05/22 00:35:06;;;;;;;0.28;0.00;;;;;;;12.85;100.00;98416.65;1720705;82;21117;-46
2022/05/22 00:39:16;;;;;;;0.50;0.10;;;;;;;12.80;100.00;98415.30;1787073;78;22595;-46
2022/05/22 00:41:55;;;;;;;3.25;0.10;;;;;;;12.72;100.00;98409.64;1769993;79;21028;-48
2022/05/22 00:44:22;;;;;;;1.50;0.10;;;;;;;12.69;100.00;98415.27;1770314;79;21144;-49
2022/05/22 00:46:49;;;;;;;1.30;0.10;;;;;;;12.66;100.00;98406.08;1769948;80;21041;-48
2022/05/22 00:49:28;;;;;;;0.17;0.10;;;;;;;12.62;100.00;98414.89;1770006;78;21183;-47
2022/05/22 00:52:00;;;;;;;2.62;0.10;;;;;;;12.58;100.00;98401.77;1770587;79;21032;-47
2022/05/22 00:54:31;;;;;;;0.98;0.10;;;;;;;12.52;100.00;98396.33;1773304;79;20908;-46
2022/05/22 00:57:16;;;;;;;2.25;0.00;;;;;;;12.48;100.00;98403.83;1762417;79;21134;-47
2022/05/22 00:59:52;;;;;;;0.25;0.10;;;;;;;12.42;100.00;98397.53;1738180;81;21020;-49
2022/05/22 01:02:18;;;;;;;1.05;0.10;;;;;;;12.37;100.00;98405.62;1740205;81;21025;-49
2022/05/22 01:04:45;;;;;;;0.28;0.00;;;;;;;12.34;100.00;98403.14;1739877;81;21433;-47
2022/05/22 01:07:13;;;;;;;0.93;0.10;;;;;;;12.32;100.00;98401.08;1732029;81;20928;-48
2022/05/22 01:09:40;;;;;;;0.62;0.10;;;;;;;12.29;100.00;98390.02;1736474;81;21424;-47
2022/05/22 01:12:18;;;;;;;1.17;0.08;;;;;;;12.28;100.00;98391.48;1740487;81;21169;-46
2022/05/22 01:14:47;;;;;;;5.28;0.10;;;;;;;12.24;100.00;98390.88;1734833;81;20871;-49
2022/05/22 01:17:16;;;;;;;1.22;0.10;;;;;;;12.24;100.00;98391.36;1736480;81;20989;-47
2022/05/22 01:19:58;;;;;;;0.40;0.15;;;;;;;12.24;100.00;98390.88;1743596;81;20879;-48
2022/05/22 01:22:26;;;;;;;0.65;0.15;;;;;;;12.21;100.00;98379.45;1740092;81;21538;-48
2022/05/22 01:24:54;;;;;;;3.67;0.10;;;;;;;12.19;100.00;98380.91;1737036;81;21338;-46
2022/05/22 01:27:21;;;;;;;0.50;0.10;;;;;;;12.17;100.00;98380.64;1711588;81;21385;-49
2022/05/22 01:29:49;;;;;;;0.93;0.10;;;;;;;12.15;100.00;98373.18;1737290;81;21924;-49
2022/05/22 01:32:15;;;;;;;1.65;0.10;;;;;;;12.12;100.00;98357.59;1741064;81;21108;-46
2022/05/22 01:34:44;;;;;;;0.82;0.20;;;;;;;12.09;100.00;98367.26;1739626;81;21112;-49
2022/05/22 01:37:11;;;;;;;1.80;0.10;;;;;;;12.07;100.00;98368.38;1738378;81;20950;-48
2022/05/22 01:39:41;;;;;;;2.42;0.20;;;;;;;12.03;100.00;98360.98;1726075;81;21418;-47
2022/05/22 01:42:08;;;;;;;1.37;0.10;;;;;;;12.01;100.00;98359.38;1721800;81;21429;-47
2022/05/22 01:44:35;;;;;;;0.17;0.10;;;;;;;11.97;100.00;98356.07;1723408;81;20943;-47
2022/05/22 01:47:01;;;;;;;0.33;0.00;;;;;;;11.95;100.00;98353.97;1724780;81;21089;-46
2022/05/22 01:49:30;;;;;;;2.60;0.10;;;;;;;11.93;100.00;98349.17;1725981;81;21077;-49
2022/05/22 01:51:57;;;;;;;0.90;0.10;;;;;;;11.89;100.00;98351.75;1721020;81;21418;-46
2022/05/22 01:54:23;;;;;;;1.65;0.03;;;;;;;11.86;100.00;98352.45;1719503;81;22389;-48
2022/05/22 01:56:50;;;;;;;1.22;0.10;;;;;;;11.83;100.00;98350.84;1718855;82;21161;-47
2022/05/22 01:59:16;;;;;;;0.17;0.10;;;;;;;11.82;100.00;98353.68;1698392;82;21533;-49
2022/05/22 02:01:51;;;;;;;5.03;0.10;;;;;;;11.80;100.00;98350.23;1721459;82;21086;-49
2022/05/22 02:04:17;;;;;;;1.80;0.10;;;;;;;11.80;100.00;98347.53;1717853;82;21062;-50
2022/05/22 02:09:34;;;;;;;0.20;0.10;;;;;;;11.78;100.00;98332.81;1724147;82;21038;-50
2022/05/22 02:12:00;;;;;;;2.58;0.20;;;;;;;11.77;100.00;98338.32;1721490;82;21242;-49
2022/05/22 02:14:28;;;;;;;0.33;0.03;;;;;;;11.77;100.00;98332.44;1723120;81;21138;-49
2022/05/22 02:17:00;;;;;;;0.53;0.10;;;;;;;11.78;100.00;98328.77;1716835;82;21466;-50
2022/05/22 02:19:26;;;;;;;2.83;0.08;;;;;;;11.79;100.00;98321.55;1721287;82;21065;-50
2022/05/22 02:21:53;;;;;;;1.07;0.00;;;;;;;11.81;100.00;98313.73;1718224;81;21533;-49
2022/05/22 02:24:20;;;;;;;1.52;0.10;;;;;;;11.84;100.00;98320.70;1724679;81;21555;-49
2022/05/22 02:26:48;;;;;;;0.62;0.10;;;;;;;11.90;100.00;98321.12;1716845;81;21129;-49
2022/05/22 02:29:15;;;;;;;1.72;0.00;;;;;;;11.97;100.00;98298.58;1717426;82;21623;-49
2022/05/22 02:31:42;;;;;;;0.53;0.10;;;;;;;12.04;100.00;98298.48;1722217;81;21482;-49
2022/05/22 02:34:08;;;;;;;0.98;0.10;;;;;;;12.11;100.00;98303.27;1719977;81;21040;-49
2022/05/22 02:36:34;;;;;;;2.85;0.08;;;;;;;12.18;100.00;98299.61;1723952;81;22402;-50
2022/05/22 02:39:01;;;;;;;0.60;0.10;;;;;;;12.25;100.00;98303.54;1731170;81;21500;-49
2022/05/22 02:41:31;;;;;;;2.42;0.10;;;;;;;12.29;100.00;98286.64;1730827;81;21045;-50
2022/05/22 02:43:59;;;;;;;0.35;0.10;;;;;;;12.33;100.00;98292.17;1729493;81;21100;-49
2022/05/22 02:46:26;;;;;;;2.75;0.13;;;;;;;12.37;100.00;98291.80;1725712;81;21485;-51
2022/05/22 02:48:52;;;;;;;0.98;0.10;;;;;;;12.41;100.00;98287.03;1730819;81;21092;-49
2022/05/22 02:51:21;;;;;;;0.23;0.10;;;;;;;12.43;100.00;98289.10;1726299;81;21030;-51
2022/05/22 02:53:48;;;;;;;1.77;0.10;;;;;;;12.46;100.00;98286.17;1728121;81;21107;-50
2022/05/22 02:56:24;;;;;;;1.55;0.10;;;;;;;12.46;100.00;98276.23;1733093;81;21058;-50
2022/05/22 02:58:53;;;;;;;0.70;0.08;;;;;;;12.47;100.00;98271.70;1716396;81;21617;-49
2022/05/22 03:01:19;;;;;;;0.42;0.10;;;;;;;12.49;100.00;98269.75;1731887;81;21880;-49
2022/05/22 03:03:47;;;;;;;0.82;0.10;;;;;;;12.50;100.00;98268.77;1733823;81;21464;-49
2022/05/22 03:08:59;;;;;;;0.88;0.10;;;;;;;12.51;100.00;98260.52;1726449;81;21276;-49
2022/05/22 03:11:26;;;;;;;1.85;0.13;;;;;;;12.53;100.00;98264.95;1731103;81;21124;-49
2022/05/22 03:13:53;;;;;;;3.42;0.10;;;;;;;12.52;100.00;98258.69;1727836;81;21988;-49
2022/05/22 03:16:19;;;;;;;4.35;0.20;;;;;;;12.53;100.00;98255.50;1730055;81;21439;-49
2022/05/22 03:18:51;;;;;;;1.75;0.10;;;;;;;12.53;100.00;98250.10;1730893;81;21100;-50
2022/05/22 03:21:19;;;;;;;3.62;0.10;;;;;;;12.54;100.00;98252.69;1722571;81;21672;-49
2022/05/22 03:23:47;;;;;;;3.45;0.20;;;;;;;12.56;100.00;98245.33;1721719;81;21114;-49
2022/05/22 03:26:14;;;;;;;0.40;0.20;;;;;;;12.60;100.00;98239.18;1722755;81;21145;-50
2022/05/22 03:28:41;;;;;;;0.82;0.20;;;;;;;12.65;100.00;98244.59;1727843;81;21617;-49
2022/05/22 03:31:07;;;;;;;3.08;0.20;;;;;;;12.69;100.00;98238.44;1723043;81;21063;-49
2022/05/22 03:33:34;;;;;;;0.50;0.10;;;;;;;12.71;100.00;98237.83;1724451;81;21097;-49
2022/05/22 03:36:01;;;;;;;0.80;0.13;;;;;;;12.73;100.00;98239.92;1726015;81;21002;-50
2022/05/22 03:38:27;;;;;;;0.40;0.10;;;;;;;12.72;100.00;98229.61;1732756;81;21152;-50
2022/05/22 03:40:56;;;;;;;0.68;0.20;;;;;;;12.72;100.00;98228.27;1731072;81;21089;-50
2022/05/22 03:43:22;;;;;;;1.27;0.10;;;;;;;12.72;100.00;98219.30;1728420;81;21075;-50
2022/05/22 03:45:49;;;;;;;0.40;0.20;;;;;;;12.70;100.00;98230.22;1728669;80;21094;-50
2022/05/22 03:48:15;;;;;;;3.85;0.20;;;;;;;12.71;100.00;98231.08;1726130;81;21777;-49
2022/05/22 03:50:43;;;;;;;0.47;0.20;;;;;;;12.68;100.00;98221.38;1727926;81;22104;-48
2022/05/22 03:53:09;;;;;;;1.47;0.20;;;;;;;12.67;100.00;98212.09;1726863;81;21121;-49
2022/05/22 03:55:38;;;;;;;0.70;0.20;;;;;;;12.63;100.00;98218.21;1726380;81;21069;-48
2022/05/22 03:58:06;;;;;;;0.68;0.15;;;;;;;12.62;100.00;98219.67;1729160;81;21591;-49
2022/05/22 04:00:33;;;;;;;0.50;0.20;;;;;;;12.61;100.00;98226.91;1730911;81;21067;-49
2022/05/22 04:03:01;;;;;;;3.05;0.20;;;;;;;12.62;100.00;98225.08;1730900;80;21677;-51
2022/05/22 04:05:27;;;;;;;2.47;0.20;;;;;;;12.63;100.00;98211.46;1731172;81;20930;-50
2022/05/22 04:07:54;;;;;;;2.60;0.20;;;;;;;12.66;100.00;98213.92;1733168;81;20971;-50
2022/05/22 04:10:23;;;;;;;1.52;0.55;;;;;;;12.68;100.00;98213.28;1731359;81;21261;-51
2022/05/22 04:12:49;;;;;;;2.22;0.10;;;;;;;12.71;100.00;98210.34;1730451;81;21053;-50
2022/05/22 04:15:18;;;;;;;1.07;0.20;;;;;;;12.70;100.00;98215.38;1729605;81;21501;-51
2022/05/22 04:17:46;;;;;;;0.80;0.20;;;;;;;12.70;100.00;98211.33;1729450;81;20938;-50
2022/05/22 04:20:17;;;;;;;0.33;0.10;;;;;;;12.69;100.00;98217.70;1729995;81;21469;-51
2022/05/22 04:25:21;;;;;;;4.58;0.10;;;;;;;12.75;100.00;98209.62;1658135;84;21282;-51
2022/05/22 04:27:48;;;;;;;0.78;0.20;;;;;;;12.80;100.00;98214.14;1725173;81;21846;-52
2022/05/22 04:30:18;;;;;;;0.98;0.20;;;;;;;12.82;100.00;98207.64;1725558;81;21468;-51
2022/05/22 04:32:46;;;;;;;2.70;0.20;;;;;;;12.83;100.00;98208.50;1727007;81;21077;-51
2022/05/22 04:35:13;;;;;;;0.78;0.17;;;;;;;12.84;100.00;98211.05;1731452;81;21086;-51
2022/05/22 04:37:39;;;;;;;1.72;0.10;;;;;;;12.86;100.00;98207.73;1718659;82;20891;-51
2022/05/22 04:40:07;;;;;;;2.22;0.20;;;;;;;12.93;100.00;98203.20;1727351;81;21067;-51
2022/05/22 04:42:36;;;;;;;4.03;0.15;;;;;;;13.02;100.00;98203.77;1723061;82;21014;-53
2022/05/22 04:45:04;;;;;;;0.80;0.20;;;;;;;13.08;100.00;98200.09;1721373;82;20966;-51
2022/05/22 04:47:40;;;;;;;9.55;0.20;;;;;;;13.16;100.00;98199.00;1716231;82;21027;-53
2022/05/22 04:50:16;;;;;;;1.67;0.20;;;;;;;13.23;100.00;98199.34;1725331;82;21336;-54
2022/05/22 04:53:01;;;;;;;0.85;0.20;;;;;;;13.27;100.00;98193.20;1718114;82;22223;-53
2022/05/22 04:55:28;;;;;;;1.07;0.20;;;;;;;13.31;100.00;98191.94;1719532;82;21094;-51
2022/05/22 04:57:56;;;;;;;0.20;0.10;;;;;;;13.35;100.00;98192.92;1685027;83;21127;-53
2022/05/22 05:00:22;;;;;;;1.22;0.20;;;;;;;13.42;100.00;98196.81;1674453;83;21308;-53
2022/05/22 05:02:51;;;;;;;1.65;0.10;;;;;;;13.48;100.00;98185.48;1713793;81;21062;-51
2022/05/22 05:05:18;;;;;;;0.30;0.10;;;;;;;13.53;100.00;98185.94;1716643;81;21139;-51
2022/05/22 05:07:44;;;;;;;1.85;0.20;;;;;;;13.59;100.00;98184.58;1720581;81;21560;-52
2022/05/22 05:10:30;;;;;;;2.57;0.10;;;;;;;13.63;100.00;98185.52;1715379;81;21482;-52
2022/05/22 05:13:02;;;;;;;0.45;0.13;;;;;;;13.63;100.00;98177.91;1718298;81;21043;-52
2022/05/22 05:15:31;;;;;;;0.37;0.10;;;;;;;13.61;100.00;98186.63;1720513;81;21050;-50
2022/05/22 05:18:05;;;;;;;0.42;0.10;;;;;;;13.58;100.00;98193.17;1707974;81;21295;-51
2022/05/22 05:20:33;;;;;;;2.45;0.20;;;;;;;13.55;100.00;98192.56;1720438;82;21482;-53
2022/05/22 05:23:05;;;;;;;2.87;0.20;;;;;;;13.50;100.00;98194.81;1720811;81;21138;-51
2022/05/22 05:25:33;;;;;;;0.68;0.10;;;;;;;13.44;100.00;98185.88;1717685;82;21094;-52
2022/05/22 05:28:01;;;;;;;1.62;0.10;;;;;;;13.39;100.00;98184.05;1715171;82;21494;-50
2022/05/22 05:30:28;;;;;;;0.72;0.10;;;;;;;13.34;100.00;98184.45;1716249;82;21153;-51
2022/05/22 05:32:56;;;;;;;0.30;0.10;;;;;;;13.33;100.00;98183.22;1664509;84;21957;-50
2022/05/22 05:35:37;;;;;;;1.45;0.20;;;;;;;13.34;100.00;98180.39;1624117;83;21114;-51
2022/05/22 05:38:06;;;;;;;0.53;0.10;;;;;;;13.36;100.00;98195.95;1718435;81;21117;-53
2022/05/22 05:40:34;;;;;;;0.98;0.10;;;;;;;13.38;100.00;98191.29;1709635;82;21498;-50
2022/05/22 05:43:01;;;;;;;2.17;0.20;;;;;;;13.42;100.00;98188.71;1698895;82;21090;-51
2022/05/22 05:45:27;;;;;;;0.40;0.20;;;;;;;13.44;100.00;98192.64;1702053;82;21046;-52
2022/05/22 05:47:57;;;;;;;2.80;0.13;;;;;;;13.44;100.00;98202.09;1698695;82;21394;-52
2022/05/22 05:50:34;;;;;;;2.85;0.20;;;;;;;13.41;100.00;98200.50;1711600;82;21042;-53
2022/05/22 05:53:03;;;;;;;4.58;0.15;;;;;;;13.37;100.00;98193.63;1700668;82;21492;-51
2022/05/22 05:55:36;;;;;;;2.87;0.10;;;;;;;13.34;100.00;98188.98;1663576;82;21861;-52
2022/05/22 05:58:21;;;;;;;;;;;;;;;13.33;100.00;98205.70;1694828;82;21113;-50
2022/05/22 06:00:49;;;;;;;0.37;0.20;;;;;;;13.36;100.00;98193.75;1701001;82;20307;-50
2022/05/22 06:03:16;;;;;;;0.98;0.10;;;;;;;13.39;100.00;98188.09;1700575;82;21562;-50
2022/05/22 06:05:43;;;;;;;0.60;0.10;;;;;;;13.46;100.00;98195.55;1691371;82;21117;-51
2022/05/22 06:08:12;;;;;;;2.00;0.10;;;;;;;13.55;100.00;98220.46;1691313;82;21537;-51
2022/05/22 06:10:39;;;;;;;1.10;0.20;;;;;;;13.56;100.00;98196.50;1686448;82;21606;-50
2022/05/22 06:13:12;;;;;;;0.55;0.20;;;;;;;13.55;100.00;98185.31;1695465;82;21075;-53
2022/05/22 06:15:38;;;;;;;2.10;0.40;;;;;;;13.52;100.00;98211.28;1692501;82;21034;-52
2022/05/22 06:18:06;;;;;;;1.47;0.10;;;;;;;13.47;100.00;98201.82;1695007;82;21058;-52
2022/05/22 06:20:33;;;;;;;0.10;0.10;;;;;;;13.41;100.00;98191.05;1696189;82;21143;-51
2022/05/22 06:23:03;;;;;;;0.30;0.10;;;;;;;13.36;100.00;98196.45;1697181;82;21015;-53
2022/05/22 06:25:47;;;;;;;1.00;0.10;;;;;;;13.33;100.00;98185.92;1700463;82;21413;-51
2022/05/22 06:28:33;;;;;;;0.25;0.13;;;;;;;13.33;100.00;98191.33;1709003;82;21755;-53
2022/05/22 06:31:18;;;;;;;;;;;;;;;13.33;100.00;98187.27;1702270;82;21071;-51
2022/05/22 06:33:50;;;;;;;1.20;0.20;;;;;;;13.34;100.00;98185.80;1688655;82;21252;-53
2022/05/22 06:36:19;;;;;;;0.20;0.10;;;;;;;13.36;100.00;98192.39;1702227;82;21113;-53
2022/05/22 06:41:55;;;;;;;0.50;0.10;;;;;;;13.25;100.00;98190.62;1696273;82;21539;-52
2022/05/22 06:44:40;;;;;;;;;;;;;;;13.19;100.00;98183.00;1723021;82;21088;-51
2022/05/22 06:47:21;;;;;;;2.70;0.10;;;;;;;13.12;100.00;98191.23;1664129;82;21360;-52
2022/05/22 06:49:52;;;;;;;0.65;0.10;;;;;;;13.06;100.00;98198.50;1709813;82;21054;-51
2022/05/22 06:52:36;;;;;;;0.35;0.10;;;;;;;13.00;100.00;98201.72;1718194;82;21037;-54
2022/05/22 06:55:09;;;;;;;0.70;0.20;;;;;;;12.95;100.00;98206.12;1680609;82;21089;-53
2022/05/22 06:57:37;;;;;;;0.33;0.23;;;;;;;12.93;100.00;98195.94;1721067;82;20912;-54
2022/05/22 07:00:15;;;;;;;1.12;0.10;;;;;;;12.92;100.00;98194.25;1671287;82;22473;-52
2022/05/22 07:02:48;;;;;;;0.30;0.20;;;;;;;12.93;100.00;98199.16;1721827;81;21073;-54
2022/05/22 07:05:19;;;;;;;1.62;0.20;;;;;;;12.93;100.00;98198.64;1678765;82;21058;-53
2022/05/22 07:07:57;;;;;;;0.25;0.20;;;;;;;12.94;100.00;98199.50;1725711;81;20877;-53
2022/05/22 07:13:38;;;;;;;1.95;0.20;;;;;;;12.94;100.00;98206.25;1720126;82;22151;-52
2022/05/22 07:16:25;;;;;;;3.65;0.55;;;;;;;12.92;100.00;98211.80;1727930;82;21355;-53
2022/05/22 07:18:53;;;;;;;6.58;0.30;;;;;;;12.92;100.00;98206.89;1719940;82;20975;-52
2022/05/22 07:21:21;;;;;;;1.05;0.13;;;;;;;12.91;100.00;98189.83;1731143;81;21548;-52
2022/05/22 07:24:06;;;;;;;0.20;0.10;;;;;;;12.93;100.00;98195.94;1722442;81;20917;-54
2022/05/22 07:26:36;;;;;;;1.12;0.10;;;;;;;12.96;100.00;98194.84;1716004;82;22289;-52
2022/05/22 07:29:21;;;;;;;0.30;0.10;;;;;;;12.99;100.00;98191.41;1719083;82;20900;-54
2022/05/22 07:32:03;;;;;;;2.65;0.15;;;;;;;13.03;100.00;98200.09;1674867;82;21146;-52
2022/05/22 07:34:49;;;;;;;3.10;0.20;;;;;;;13.08;100.00;98193.34;1649031;84;21069;-53
2022/05/22 07:37:35;;;;;;;0.28;0.10;;;;;;;13.14;100.00;98177.14;1713916;81;20904;-54
2022/05/22 07:40:07;;;;;;;0.10;0.10;;;;;;;13.16;100.00;98185.98;1668345;81;21132;-53
2022/05/22 07:42:35;;;;;;;0.80;0.10;;;;;;;13.18;100.00;98186.72;1732872;81;20990;-53
2022/05/22 07:45:19;;;;;;;5.67;0.20;;;;;;;13.17;100.00;98187.70;1645213;85;21081;-51
2022/05/22 07:47:48;;;;;;;1.95;0.10;;;;;;;13.16;100.00;98184.63;1702213;81;21095;-54
2022/05/22 07:50:20;;;;;;;1.27;0.10;;;;;;;13.13;100.00;98185.73;1725834;81;21475;-51
2022/05/22 07:53:06;;;;;;;3.65;0.20;;;;;;;13.11;100.00;98192.20;1732546;81;21256;-51
2022/05/22 07:55:39;;;;;;;2.20;0.10;;;;;;;13.07;100.00;98192.97;1731610;81;21491;-53
2022/05/22 07:58:19;;;;;;;0.17;0.10;;;;;;;13.04;100.00;98189.66;1731673;81;21104;-52
2022/05/22 08:00:47;;;;;;;0.10;0.00;;;;;;;13.00;100.00;98214.73;1726226;81;22301;-51
2022/05/22 08:03:17;;;;;;;2.98;0.10;;;;;;;12.95;100.00;98204.78;1727811;81;21054;-48
2022/05/22 08:05:53;;;;;;;0.10;0.10;;;;;;;12.89;100.00;98207.50;1731942;81;21010;-49
2022/05/22 08:08:20;;;;;;;3.10;0.10;;;;;;;12.83;100.00;98206.66;1729224;81;21045;-51
2022/05/22 08:10:51;;;;;;;0.13;0.10;;;;;;;12.78;100.00;98211.56;1728733;81;21093;-49
2022/05/22 08:13:19;;;;;;;1.95;0.10;;;;;;;12.72;100.00;98212.56;1729528;81;21117;-51
2022/05/22 08:15:47;;;;;;;1.37;0.05;;;;;;;12.68;100.00;98221.88;1729358;81;21042;-48
2022/05/22 08:18:22;;;;;;;0.60;0.10;;;;;;;12.64;100.00;98228.03;1726748;81;21342;-48
2022/05/22 08:20:49;;;;;;;0.28;0.10;;;;;;;12.61;100.00;98224.22;1734018;81;20951;-52
2022/05/22 08:23:21;;;;;;;0.10;0.00;;;;;;;12.55;100.00;98231.95;1729343;81;21536;-50
2022/05/22 08:25:58;;;;;;;0.30;0.10;;;;;;;12.48;100.00;98227.05;1729381;81;22144;-52
2022/05/22 08:28:27;;;;;;;0.85;0.10;;;;;;;12.40;100.00;98228.65;1724301;81;21054;-50
2022/05/22 08:30:55;;;;;;;0.23;0.10;;;;;;;12.31;100.00;98224.84;1729632;81;21150;-50
2022/05/22 08:33:22;;;;;;;0.33;0.08;;;;;;;12.26;100.00;98224.81;1730249;81;21010;-51
2022/05/22 08:35:50;;;;;;;0.47;0.10;;;;;;;12.25;100.00;98228.00;1700512;81;21143;-50
2022/05/22 08:38:17;;;;;;;0.40;0.10;;;;;;;12.32;100.00;98225.70;1727092;81;21061;-50
2022/05/22 08:41:09;;;;;;;0.30;0.10;;;;;;;12.40;100.00;98230.00;1726686;81;21426;-50
2022/05/22 08:43:45;;;;;;;0.50;0.20;;;;;;;12.48;100.00;98216.75;1729399;81;23297;-51
2022/05/22 08:46:21;;;;;;;0.65;0.10;;;;;;;12.59;100.00;98223.47;1703394;81;22067;-51
2022/05/22 08:48:57;;;;;;;1.22;0.10;;;;;;;12.70;100.00;98223.96;1723423;81;21440;-50
2022/05/22 08:51:33;;;;;;;;;;;;;;;12.75;100.00;98213.67;1732492;81;21087;-51
2022/05/22 08:54:14;;;;;;;0.23;0.10;;;;;;;12.80;100.00;98231.20;1727219;81;20310;-50
2022/05/22 08:59:36;;;;;;;0.30;0.13;;;;;;;12.86;100.00;98216.33;1727308;81;21073;-51
2022/05/22 09:02:17;;;;;;;0.15;0.10;;;;;;;12.90;100.00;98213.77;1720283;81;21064;-51
2022/05/22 09:04:55;;;;;;;1.85;0.05;;;;;;;12.92;100.00;98218.55;1720505;81;21129;-51
2022/05/22 09:07:41;;;;;;;2.08;0.00;;;;;;;12.97;100.00;98212.76;1726838;81;21067;-51
2022/05/22 09:10:13;;;;;;;0.85;0.37;;;;;;;12.99;100.00;98210.31;1729615;81;21567;-51
2022/05/22 09:13:33;;;;;;;0.20;0.05;;;;;;;13.00;100.00;98218.78;1726808;81;21063;-49
2022/05/22 09:16:29;;;;;;;0.10;0.00;;;;;;;12.99;100.00;98225.16;1726842;81;21506;-51
2022/05/22 09:19:12;;;;;;;0.10;0.00;;;;;;;13.02;100.00;98217.28;1726883;81;21037;-52
2022/05/22 09:22:14;;;;;;;1.22;0.00;;;;;;;13.05;100.00;98219.73;1729456;81;21077;-52
2022/05/22 09:25:29;;;;;;;0.08;0.00;;;;;;;13.04;100.00;98212.61;1726420;81;22252;-51
2022/05/22 09:28:41;;;;;;;2.22;0.00;;;;;;;13.00;100.00;98224.67;1728204;81;21037;-51
2022/05/22 09:31:33;;;;;;;0.20;0.10;;;;;;;13.00;100.00;98220.62;1681921;83;21596;-52
2022/05/22 09:34:37;;;;;;;0.20;0.00;;;;;;;13.01;100.00;98227.75;1693285;81;21683;-52
2022/05/22 09:37:28;;;;;;;0.00;0.00;;;;;;;13.03;100.00;98225.75;1721178;81;21179;-51
2022/05/22 09:40:19;;;;;;;0.00;0.00;;;;;;;12.99;100.00;98223.81;1717042;81;21289;-49
2022/05/22 09:43:11;;;;;;;0.05;0.00;;;;;;;12.95;100.00;98231.78;1727987;81;21101;-49
2022/05/22 09:46:09;;;;;;;0.20;0.10;;;;;;;12.88;100.00;98234.63;1728592;81;22097;-51
2022/05/22 09:49:22;;;;;;;0.10;0.00;;;;;;;12.79;100.00;98232.18;1722538;81;21671;-50
2022/05/22 09:52:12;;;;;;;0.13;0.00;;;;;;;12.74;100.00;98239.81;1726964;81;21030;-51
2022/05/22 09:55:19;;;;;;;1.27;0.10;;;;;;;12.70;100.00;98250.47;1727081;81;21484;-51
2022/05/22 09:57:54;;;;;;;0.75;0.10;;;;;;;12.64;100.00;98240.66;1696363;82;21016;-51
2022/05/22 10:00:29;;;;;;;1.75;0.00;;;;;;;12.57;100.00;98242.14;1680709;83;21113;-51
2022/05/22 10:03:21;;;;;;;0.65;0.10;;;;;;;12.50;100.00;98234.52;1722209;81;21365;-49
2022/05/22 10:06:10;;;;;;;0.98;0.00;;;;;;;12.48;100.00;98238.34;1730299;81;21804;-51
2022/05/22 10:09:27;;;;;;;1.00;0.00;;;;;;;12.47;100.00;98238.83;1732449;81;21105;-49
2022/05/22 10:12:16;;;;;;;0.25;0.00;;;;;;;12.45;100.00;98243.48;1726303;81;20991;-51
2022/05/22 10:15:24;;;;;;;0.00;0.00;;;;;;;12.45;100.00;98242.63;1736956;81;21350;-48
2022/05/22 10:18:27;;;;;;;0.08;0.08;;;;;;;12.44;100.00;98242.25;1726027;81;20880;-49
2022/05/22 10:21:33;;;;;;;0.10;0.00;;;;;;;12.43;100.00;98259.42;1737046;81;21410;-50
2022/05/22 10:24:13;;;;;;;0.10;0.10;;;;;;;12.41;100.00;98258.70;1733252;81;21405;-49
2022/05/22 10:27:19;;;;;;;0.15;0.10;;;;;;;12.39;100.00;98252.08;1730985;81;20919;-48
2022/05/22 10:30:06;;;;;;;0.15;0.00;;;;;;;12.40;100.00;98271.82;1726472;81;21433;-47
2022/05/22 10:32:44;;;;;;;0.23;0.10;;;;;;;12.41;100.00;98264.96;1727388;81;21050;-50
2022/05/22 10:35:24;;;;;;;0.30;0.10;;;;;;;12.40;100.00;98268.64;1709537;81;21477;-48
2022/05/22 10:38:13;;;;;;;0.10;0.05;;;;;;;12.40;100.00;98259.68;1718401;81;21462;-46
2022/05/22 10:43:33;;;;;;;1.07;0.10;;;;;;;12.45;100.00;98281.27;1746173;80;21053;-49
2022/05/22 10:46:00;;;;;;;0.30;0.10;;;;;;;12.46;100.00;98278.08;1748684;80;20990;-46
2022/05/22 10:48:28;;;;;;;0.37;0.10;;;;;;;12.43;100.00;98264.81;1745429;80;21029;-47
2022/05/22 10:51:12;;;;;;;1.55;0.10;;;;;;;12.43;100.00;98267.52;1740346;80;21099;-49
2022/05/22 10:53:57;;;;;;;0.15;0.10;;;;;;;12.41;100.00;98275.76;1743853;80;21101;-48
2022/05/22 10:56:29;;;;;;;0.57;0.10;;;;;;;12.41;100.00;98268.15;1742236;80;21001;-47
2022/05/22 10:59:01;;;;;;;0.17;0.10;;;;;;;12.45;100.00;98273.17;1745006;80;21089;-49
2022/05/22 11:01:32;;;;;;;0.57;0.20;;;;;;;12.44;100.00;98275.49;1747996;80;21090;-48
2022/05/22 11:04:14;;;;;;;0.15;0.10;;;;;;;12.44;100.00;98274.63;1742905;80;22198;-46
2022/05/22 11:06:59;;;;;;;0.30;0.10;;;;;;;12.42;100.00;98273.89;1718242;82;21481;-47
2022/05/22 11:09:33;;;;;;;0.10;0.00;;;;;;;12.40;100.00;98283.97;1721093;82;21085;-47
2022/05/22 11:12:10;;;;;;;0.10;0.10;;;;;;;12.33;100.00;98282.73;1722658;82;21002;-48
2022/05/22 11:14:37;;;;;;;0.28;0.13;;;;;;;12.30;100.00;98296.45;1713342;82;21340;-48
2022/05/22 11:17:21;;;;;;;0.40;0.10;;;;;;;12.28;100.00;98291.66;1705793;82;21149;-46
2022/05/22 11:19:56;;;;;;;0.10;0.10;;;;;;;12.23;100.00;98300.62;1724260;82;21499;-47
2022/05/22 11:23:00;;;;;;;0.10;0.10;;;;;;;12.21;100.00;98297.17;1723924;82;21079;-47
2022/05/22 11:25:43;;;;;;;0.37;0.10;;;;;;;12.19;100.00;98291.02;1722205;82;21505;-48
2022/05/22 11:28:53;;;;;;;0.57;0.17;;;;;;;12.19;100.00;98299.98;1716596;82;21494;-47
2022/05/22 11:31:48;;;;;;;2.00;0.13;;;;;;;12.16;100.00;98300.23;1719018;82;21264;-47
2022/05/22 11:34:46;;;;;;;0.10;0.10;;;;;;;12.13;100.00;98307.20;1711023;82;21101;-46
2022/05/22 11:37:24;;;;;;;0.47;0.10;;;;;;;12.10;100.00;98300.69;1686237;83;21114;-47
2022/05/22 11:39:59;;;;;;;0.30;0.10;;;;;;;12.07;100.00;98303.16;1672244;83;21034;-48
2022/05/22 11:42:35;;;;;;;1.05;0.10;;;;;;;12.05;100.00;98309.16;1718262;81;21113;-47
2022/05/22 11:45:23;;;;;;;0.80;0.10;;;;;;;12.06;100.00;98307.31;1720889;82;22280;-46
2022/05/22 11:48:05;;;;;;;0.10;0.10;;;;;;;12.05;100.00;98310.50;1726027;81;21128;-49
2022/05/22 11:50:48;;;;;;;0.03;0.03;;;;;;;12.02;100.00;98308.03;1695320;82;21627;-48
2022/05/22 11:53:43;;;;;;;12.63;0.20;;;;;;;11.97;100.00;98320.16;1720115;82;21082;-48
2022/05/22 11:56:22;;;;;;;0.03;0.03;;;;;;;11.94;100.00;98314.50;1720034;82;21034;-48
2022/05/22 11:59:12;;;;;;;0.20;0.03;;;;;;;11.92;100.00;98331.27;1710496;82;21859;-47
2022/05/22 12:01:57;;;;;;;0.10;0.10;;;;;;;11.88;100.00;98324.90;1715758;82;21146;-48
2022/05/22 12:04:32;;;;;;;0.28;0.10;;;;;;;11.85;100.00;98324.63;1714681;82;21595;-48
2022/05/22 12:07:47;;;;;;;0.10;0.10;;;;;;;11.83;100.00;98322.53;1721797;82;21463;-47
2022/05/22 12:10:23;;;;;;;0.10;0.10;;;;;;;11.85;100.00;98323.28;1722603;82;21062;-48
2022/05/22 12:13:18;;;;;;;0.28;0.10;;;;;;;11.89;100.00;98333.36;1724279;82;21088;-47
2022/05/22 12:16:02;;;;;;;0.23;0.10;;;;;;;11.89;100.00;98323.44;1722426;82;21102;-47
2022/05/22 12:18:57;;;;;;;0.40;0.20;;;;;;;11.94;100.00;98332.51;1725134;81;21060;-47
2022/05/22 12:22:05;;;;;;;0.40;0.20;;;;;;;11.97;100.00;98331.80;1723347;82;21178;-46
2022/05/22 12:24:55;;;;;;;0.20;0.20;;;;;;;11.96;100.00;98331.42;1721512;82;21117;-47